Xavier Cenac — WDI6829 — position and weather

sailwx.info

Track history (hours):
 
Tides and Currents Weather Stations Pressure Air Temp Water Temp Dewpoint Dewpoint Depression Visibility Wind Speed Wind Dir Waves Ship Positions

Xavier Cenac

Owner: Cenac Marine Services LLC, Houma, LA. More information available from US FCC via Universal Licensing System and Coast Guard Vessel Documentation Center.

Last reported at 2018-May-28 01:00 UTC. Time now 2018-May-28 01:01 UTC.
Position N 30°05' W 093°18'.

Length 23 m; draft 8.6 m.

Type: Tug. MMSI: 367722660.

Date/timePositionNaut miles runAvg speedWind from/ knotsBaromVisibWave heightAir tempDewpointWater temp
2018-May-28 01:00N 30°05' W 093°18'0 0.8
2018-May-28 00:30N 30°05' W 093°17'1 1.3
2018-May-28 00:00N 30°05' W 093°17'0 0.2
2018-May-27 23:29N 30°05' W 093°17'0 0.0
2018-May-27 23:00N 30°05' W 093°17'0 0.0
2018-May-27 22:29N 30°05' W 093°17'0 0.0
2018-May-27 22:00N 30°05' W 093°17'0 0.0
2018-May-27 21:30N 30°05' W 093°17'0 0.1
2018-May-27 20:59N 30°05' W 093°17'0 0.1
2018-May-27 20:30N 30°05' W 093°17'0 0.0
2018-May-27 20:00N 30°05' W 093°17'0 0.0
2018-May-27 19:30N 30°05' W 093°17'0 0.7
2018-May-27 19:00N 30°04' W 093°16'1 1.8
2018-May-27 18:30N 30°04' W 093°16'0 0.1
2018-May-27 18:00N 30°04' W 093°16'0 0.0
2018-May-27 17:30N 30°04' W 093°16'1 2.3
2018-May-27 17:00N 30°02' W 093°16'1 1.7
2018-May-27 16:30N 30°02' W 093°15'0 0.0
2018-May-27 16:00N 30°02' W 093°15'0 0.0
2018-May-27 15:30N 30°02' W 093°15'0 0.0
2018-May-27 15:00N 30°02' W 093°15'0 0.0
2018-May-27 14:30N 30°02' W 093°15'0 0.0
2018-May-27 14:00N 30°02' W 093°15'0 0.0
2018-May-27 13:30N 30°02' W 093°15'0 0.0
2018-May-27 12:59N 30°02' W 093°15'0 0.0
2018-May-27 12:30N 30°02' W 093°15'0 0.0
2018-May-27 12:00N 30°02' W 093°15'0 0.0
2018-May-27 11:30N 30°02' W 093°15'2 3.7
2018-May-27 11:00N 30°00' W 093°14'2 3.3
2018-May-27 10:30N 29°59' W 093°12'0 0.0
2018-May-27 10:00N 29°59' W 093°12'0 0.0
2018-May-27 09:30N 29°59' W 093°12'0 0.0
2018-May-27 09:00N 29°59' W 093°12'0 0.0
2018-May-27 08:30N 29°59' W 093°12'0 0.0
2018-May-27 08:00N 29°59' W 093°12'0 0.0
2018-May-27 07:30N 29°59' W 093°12'0 0.0
2018-May-27 07:00N 29°59' W 093°12'0 0.0
2018-May-27 06:30N 29°59' W 093°12'0 0.0
2018-May-27 06:00N 29°59' W 093°12'0 0.0
2018-May-27 05:30N 29°59' W 093°12'0 0.0
2018-May-27 05:00N 29°59' W 093°12'0 0.0
2018-May-27 04:30N 29°59' W 093°12'0 0.0
2018-May-27 04:00N 29°59' W 093°12'0 0.0
2018-May-27 03:30N 29°59' W 093°12'2 3.2
2018-May-27 03:00N 29°58' W 093°11'1 2.7
2018-May-27 02:30N 29°57' W 093°10'0 0.3
2018-May-27 02:00N 29°57' W 093°10'0 0.0
2018-May-27 01:30N 29°57' W 093°10'0 0.0
2018-May-27 01:00N 29°57' W 093°10'0 0.0
2018-May-27 00:30N 29°57' W 093°10'0 0.0
2018-May-26 23:59N 29°57' W 093°10'0 0.0
2018-May-26 23:30N 29°57' W 093°10'0 0.0
2018-May-26 23:00N 29°57' W 093°10'1 2.5
2018-May-26 22:29N 29°56' W 093°09'1 2.2
2018-May-26 22:00N 29°56' W 093°08'2 3.5
2018-May-26 21:30N 29°56' W 093°06'2 4.4
2018-May-26 20:57N 29°56' W 093°03'3 5.6
2018-May-26 20:26N 29°56' W 092°60'0 0.6
2018-May-26 20:00N 29°56' W 092°59'30 5.3
2018-May-26 14:22N 29°53' W 092°25'3 6.0
2018-May-26 13:48N 29°51' W 092°22'2 6.7
2018-May-26 13:30N 29°50' W 092°20'3 6.5
2018-May-26 13:00N 29°49' W 092°16'4 7.2
2018-May-26 12:30N 29°47' W 092°13'1 2.0
2018-May-26 12:00N 29°47' W 092°11'0 0.9
2018-May-26 11:30N 29°47' W 092°11'0 0.0
2018-May-26 11:00N 29°47' W 092°11'2 3.2
2018-May-26 10:30N 29°47' W 092°09'4 7.1
2018-May-26 09:59N 29°48' W 092°05'4 7.3
2018-May-26 09:29N 29°49' W 092°01'4 7.5
2018-May-26 09:00N 29°50' W 091°57'  
2018-May-18 13:27N 29°56' W 092°55'3 4.7
2018-May-18 12:46N 29°56' W 092°59'1 1.6
2018-May-18 12:24N 29°56' W 092°60'3 3.9
2018-May-18 11:39N 29°56' W 093°03'1 4.1
2018-May-18 11:19N 29°56' W 093°05'1 4.5
2018-May-18 11:00N 29°56' W 093°07'2 4.7
2018-May-18 10:30N 29°56' W 093°09'2 4.4
2018-May-18 10:00N 29°58' W 093°11'2 4.6
2018-May-18 09:30N 29°59' W 093°13'2 4.3
2018-May-18 09:00N 30°01' W 093°14'2 4.5
2018-May-18 08:30N 30°03' W 093°16'2 5.0
2018-May-18 08:00N 30°05' W 093°17'1 2.0
2018-May-18 07:30N 30°06' W 093°18'1 1.6
2018-May-18 06:59N 30°06' W 093°19'0 0.0
2018-May-18 06:29N 30°06' W 093°19'0 0.0
2018-May-18 05:59N 30°06' W 093°19'0 0.1
2018-May-18 05:29N 30°06' W 093°19'0 0.0
2018-May-18 05:00N 30°06' W 093°19'2 4.3
2018-May-18 04:30N 30°04' W 093°20'2 4.6
2018-May-18 04:01N 30°04' W 093°23'3 5.4
2018-May-18 03:30N 30°04' W 093°26'3 5.9
2018-May-18 02:59N 30°04' W 093°30'3 5.8
2018-May-18 02:31N 30°04' W 093°33'3 5.7
2018-May-18 02:00N 30°04' W 093°36'4 6.4
2018-May-18 01:27N 30°04' W 093°40'3 6.4
2018-May-18 01:00N 30°03' W 093°43'  
Track history (hours):
 
Tides and Currents Weather Stations Pressure Air Temp Water Temp Dewpoint Dewpoint Depression Visibility Wind Speed Wind Dir Waves Ship Positions

Xavier Cenac

Owner: Cenac Marine Services LLC, Houma, LA. More information available from US FCC via Universal Licensing System and Coast Guard Vessel Documentation Center.

Last reported at 2018-May-28 01:00 UTC. Time now 2018-May-28 01:01 UTC.
Position N 30°05' W 093°18'.

Length 23 m; draft 8.6 m.

Type: Tug. MMSI: 367722660.

Date/timePositionNaut miles runAvg speedWind from/ knotsBaromVisibWave heightAir tempDewpointWater temp
2018-May-28 01:00N 30°05' W 093°18'0 0.8
2018-May-28 00:30N 30°05' W 093°17'1 1.3
2018-May-28 00:00N 30°05' W 093°17'0 0.2
2018-May-27 23:29N 30°05' W 093°17'0 0.0
2018-May-27 23:00N 30°05' W 093°17'0 0.0
2018-May-27 22:29N 30°05' W 093°17'0 0.0
2018-May-27 22:00N 30°05' W 093°17'0 0.0
2018-May-27 21:30N 30°05' W 093°17'0 0.1
2018-May-27 20:59N 30°05' W 093°17'0 0.1
2018-May-27 20:30N 30°05' W 093°17'0 0.0
2018-May-27 20:00N 30°05' W 093°17'0 0.0
2018-May-27 19:30N 30°05' W 093°17'0 0.7
2018-May-27 19:00N 30°04' W 093°16'1 1.8
2018-May-27 18:30N 30°04' W 093°16'0 0.1
2018-May-27 18:00N 30°04' W 093°16'0 0.0
2018-May-27 17:30N 30°04' W 093°16'1 2.3
2018-May-27 17:00N 30°02' W 093°16'1 1.7
2018-May-27 16:30N 30°02' W 093°15'0 0.0
2018-May-27 16:00N 30°02' W 093°15'0 0.0
2018-May-27 15:30N 30°02' W 093°15'0 0.0
2018-May-27 15:00N 30°02' W 093°15'0 0.0
2018-May-27 14:30N 30°02' W 093°15'0 0.0
2018-May-27 14:00N 30°02' W 093°15'0 0.0
2018-May-27 13:30N 30°02' W 093°15'0 0.0
2018-May-27 12:59N 30°02' W 093°15'0 0.0
2018-May-27 12:30N 30°02' W 093°15'0 0.0
2018-May-27 12:00N 30°02' W 093°15'0 0.0
2018-May-27 11:30N 30°02' W 093°15'2 3.7
2018-May-27 11:00N 30°00' W 093°14'2 3.3
2018-May-27 10:30N 29°59' W 093°12'0 0.0
2018-May-27 10:00N 29°59' W 093°12'0 0.0
2018-May-27 09:30N 29°59' W 093°12'0 0.0
2018-May-27 09:00N 29°59' W 093°12'0 0.0
2018-May-27 08:30N 29°59' W 093°12'0 0.0
2018-May-27 08:00N 29°59' W 093°12'0 0.0
2018-May-27 07:30N 29°59' W 093°12'0 0.0
2018-May-27 07:00N 29°59' W 093°12'0 0.0
2018-May-27 06:30N 29°59' W 093°12'0 0.0
2018-May-27 06:00N 29°59' W 093°12'0 0.0
2018-May-27 05:30N 29°59' W 093°12'0 0.0
2018-May-27 05:00N 29°59' W 093°12'0 0.0
2018-May-27 04:30N 29°59' W 093°12'0 0.0
2018-May-27 04:00N 29°59' W 093°12'0 0.0
2018-May-27 03:30N 29°59' W 093°12'2 3.2
2018-May-27 03:00N 29°58' W 093°11'1 2.7
2018-May-27 02:30N 29°57' W 093°10'0 0.3
2018-May-27 02:00N 29°57' W 093°10'0 0.0
2018-May-27 01:30N 29°57' W 093°10'0 0.0
2018-May-27 01:00N 29°57' W 093°10'0 0.0
2018-May-27 00:30N 29°57' W 093°10'0 0.0
2018-May-26 23:59N 29°57' W 093°10'0 0.0
2018-May-26 23:30N 29°57' W 093°10'0 0.0
2018-May-26 23:00N 29°57' W 093°10'1 2.5
2018-May-26 22:29N 29°56' W 093°09'1 2.2
2018-May-26 22:00N 29°56' W 093°08'2 3.5
2018-May-26 21:30N 29°56' W 093°06'2 4.4
2018-May-26 20:57N 29°56' W 093°03'3 5.6
2018-May-26 20:26N 29°56' W 092°60'0 0.6
2018-May-26 20:00N 29°56' W 092°59'30 5.3
2018-May-26 14:22N 29°53' W 092°25'3 6.0
2018-May-26 13:48N 29°51' W 092°22'2 6.7
2018-May-26 13:30N 29°50' W 092°20'3 6.5
2018-May-26 13:00N 29°49' W 092°16'4 7.2
2018-May-26 12:30N 29°47' W 092°13'1 2.0
2018-May-26 12:00N 29°47' W 092°11'0 0.9
2018-May-26 11:30N 29°47' W 092°11'0 0.0
2018-May-26 11:00N 29°47' W 092°11'2 3.2
2018-May-26 10:30N 29°47' W 092°09'4 7.1
2018-May-26 09:59N 29°48' W 092°05'4 7.3
2018-May-26 09:29N 29°49' W 092°01'4 7.5
2018-May-26 09:00N 29°50' W 091°57'  
2018-May-18 13:27N 29°56' W 092°55'3 4.7
2018-May-18 12:46N 29°56' W 092°59'1 1.6
2018-May-18 12:24N 29°56' W 092°60'3 3.9
2018-May-18 11:39N 29°56' W 093°03'1 4.1
2018-May-18 11:19N 29°56' W 093°05'1 4.5
2018-May-18 11:00N 29°56' W 093°07'2 4.7
2018-May-18 10:30N 29°56' W 093°09'2 4.4
2018-May-18 10:00N 29°58' W 093°11'2 4.6
2018-May-18 09:30N 29°59' W 093°13'2 4.3
2018-May-18 09:00N 30°01' W 093°14'2 4.5
2018-May-18 08:30N 30°03' W 093°16'2 5.0
2018-May-18 08:00N 30°05' W 093°17'1 2.0
2018-May-18 07:30N 30°06' W 093°18'1 1.6
2018-May-18 06:59N 30°06' W 093°19'0 0.0
2018-May-18 06:29N 30°06' W 093°19'0 0.0
2018-May-18 05:59N 30°06' W 093°19'0 0.1
2018-May-18 05:29N 30°06' W 093°19'0 0.0
2018-May-18 05:00N 30°06' W 093°19'2 4.3
2018-May-18 04:30N 30°04' W 093°20'2 4.6
2018-May-18 04:01N 30°04' W 093°23'3 5.4
2018-May-18 03:30N 30°04' W 093°26'3 5.9
2018-May-18 02:59N 30°04' W 093°30'3 5.8
2018-May-18 02:31N 30°04' W 093°33'3 5.7
2018-May-18 02:00N 30°04' W 093°36'4 6.4
2018-May-18 01:27N 30°04' W 093°40'3 6.4
2018-May-18 01:00N 30°03' W 093°43'  

Dump ship's entire track history